Time;durP1;ratioP1;P1;durP2;ratioP2;P2;SDS_P1;SDS_P2;PMS_P1;PMS_P2;Temp;Humidity;BMP_temperature;BMP_pressure;BME280_temperature;BME280_humidity;BME280_pressure;Samples;Min_cycle;Max_cycle;Signal;HPM_P1;HPM_P2
2022/08/27 00:01:01;;;;;;;;;;;15.70;99.90;;;;;;5106102;27;19946;-56
2022/08/27 00:03:40;;;;;;;;;;;15.70;99.90;;;;;;5106020;27;19912;-56
2022/08/27 00:06:21;;;;;;;;;;;15.70;99.90;;;;;;5126643;27;19953;-56
2022/08/27 00:09:02;;;;;;;;;;;15.70;99.90;;;;;;5126188;27;19918;-56
2022/08/27 00:11:42;;;;;;;;;;;15.70;99.90;;;;;;5126972;27;19912;-55
2022/08/27 00:14:24;;;;;;;;;;;15.60;99.90;;;;;;5101284;27;19927;-56
2022/08/27 00:17:05;;;;;;;;;;;15.60;99.90;;;;;;5126679;27;19912;-55
2022/08/27 00:19:46;;;;;;;;;;;15.60;99.90;;;;;;5126553;27;19919;-57
2022/08/27 00:22:26;;;;;;;;;;;15.60;99.90;;;;;;5106112;27;19918;-55
2022/08/27 00:25:06;;;;;;;;;;;15.50;99.90;;;;;;5115580;27;19919;-56
2022/08/27 00:27:46;;;;;;;;;;;15.50;99.90;;;;;;5126668;27;19961;-56
2022/08/27 00:30:26;;;;;;;;;;;15.50;99.90;;;;;;5106043;27;20377;-57
2022/08/27 00:33:07;;;;;;;;;;;15.40;99.90;;;;;;5127160;27;19937;-55
2022/08/27 00:35:47;;;;;;;;;;;15.50;99.90;;;;;;5126403;27;19918;-56
2022/08/27 00:38:27;;;;;;;;;;;15.50;99.90;;;;;;5106263;27;19912;-56
2022/08/27 00:41:09;;;;;;;;;;;15.60;99.90;;;;;;5106430;27;19912;-54
2022/08/27 00:43:52;;;;;;;;;;;15.60;99.90;;;;;;5105374;27;20424;-56
2022/08/27 00:46:34;;;;;;;;;;;15.60;99.90;;;;;;5126808;27;19915;-56
2022/08/27 00:49:16;;;;;;;;;;;15.60;99.90;;;;;;5126591;27;19912;-56
2022/08/27 00:51:57;;;;;;;;;;;15.60;99.90;;;;;;5126634;27;19929;-56
2022/08/27 00:54:38;;;;;;;;;;;15.60;99.90;;;;;;5098963;27;20344;-56
2022/08/27 00:57:18;;;;;;;;;;;15.50;99.90;;;;;;5126544;27;20436;-56
2022/08/27 01:00:00;;;;;;;;;;;15.40;99.90;;;;;;5126374;27;19916;-55
2022/08/27 01:02:42;;;;;;;;;;;15.40;99.90;;;;;;5126676;27;19911;-55
2022/08/27 01:05:24;;;;;;;;;;;15.30;99.90;;;;;;5113359;27;19912;-56
2022/08/27 01:08:06;;;;;;;;;;;15.30;99.90;;;;;;5106265;27;19923;-55
2022/08/27 01:10:47;;;;;;;;;;;15.30;99.90;;;;;;5126229;27;20344;-56
2022/08/27 01:13:30;;;;;;;;;;;15.40;99.90;;;;;;5105830;27;19916;-56
2022/08/27 01:16:10;;;;;;;;;;;15.40;99.90;;;;;;5106300;27;19918;-55
2022/08/27 01:18:51;;;;;;;;;;;15.30;99.90;;;;;;5147228;27;19911;-56
2022/08/27 01:21:33;;;;;;;;;;;15.30;99.90;;;;;;5106013;27;19926;-56
2022/08/27 01:24:21;;;;;;;;;;;15.20;99.90;;;;;;5123262;27;19934;-55
2022/08/27 01:27:02;;;;;;;;;;;15.10;99.90;;;;;;5127350;27;19934;-56
2022/08/27 01:29:44;;;;;;;;;;;15.00;99.90;;;;;;5126456;27;19912;-56
2022/08/27 01:32:26;;;;;;;;;;;14.90;99.90;;;;;;5126891;27;20276;-55
2022/08/27 01:35:08;;;;;;;;;;;14.80;99.90;;;;;;5126903;27;20225;-55
2022/08/27 01:37:50;;;;;;;;;;;14.80;99.90;;;;;;5126343;27;19912;-55
2022/08/27 01:40:31;;;;;;;;;;;14.80;99.90;;;;;;5085586;28;19919;-56
2022/08/27 01:43:10;;;;;;;;;;;14.70;99.90;;;;;;5126513;27;19926;-55
2022/08/27 01:45:51;;;;;;;;;;;14.70;99.90;;;;;;5088596;27;19923;-56
2022/08/27 01:48:31;;;;;;;;;;;14.70;99.90;;;;;;5106348;27;20369;-55
2022/08/27 01:51:12;;;;;;;;;;;14.70;99.90;;;;;;5126697;27;20389;-55
2022/08/27 01:53:51;;;;;;;;;;;14.70;99.90;;;;;;5146856;27;19925;-56
2022/08/27 01:56:31;;;;;;;;;;;14.70;99.90;;;;;;5162476;22;20303;-55
2022/08/27 01:59:23;;;;;;;;;;;14.70;99.90;;;;;;5122569;27;20420;-55
2022/08/27 02:02:04;;;;;;;;;;;14.70;99.90;;;;;;5125369;27;19911;-55
2022/08/27 02:04:44;;;;;;;;;;;14.60;99.90;;;;;;5125508;27;19918;-55
2022/08/27 02:07:25;;;;;;;;;;;14.60;99.90;;;;;;5124870;27;19912;-55
2022/08/27 02:10:05;;;;;;;;;;;14.60;99.90;;;;;;5104179;27;19946;-55
2022/08/27 02:12:46;;;;;;;;;;;14.70;99.90;;;;;;5104367;27;20397;-55
2022/08/27 02:15:26;;;;;;;;;;;14.90;99.90;;;;;;5120144;27;20197;-55
2022/08/27 02:18:06;;;;;;;;;;;15.00;99.90;;;;;;5124741;27;19916;-55
2022/08/27 02:20:46;;;;;;;;;;;15.20;99.90;;;;;;5124360;27;19919;-55
2022/08/27 02:23:27;;;;;;;;;;;15.20;99.90;;;;;;5123885;27;19916;-55
2022/08/27 02:26:07;;;;;;;;;;;15.40;99.90;;;;;;5125320;27;19912;-55
2022/08/27 02:28:46;;;;;;;;;;;15.40;99.90;;;;;;5105770;27;19973;-54
2022/08/27 02:31:27;;;;;;;;;;;15.50;99.90;;;;;;5124837;27;19916;-55
2022/08/27 02:34:08;;;;;;;;;;;15.60;99.90;;;;;;5104579;27;19926;-55
2022/08/27 02:36:49;;;;;;;;;;;15.60;99.90;;;;;;5104547;27;20443;-55
2022/08/27 02:39:29;;;;;;;;;;;15.70;99.90;;;;;;5124398;27;20360;-55
2022/08/27 02:42:09;;;;;;;;;;;15.70;99.90;;;;;;5104901;27;19926;-55
2022/08/27 02:44:49;;;;;;;;;;;15.60;99.90;;;;;;5140166;27;19918;-55
2022/08/27 02:47:28;;;;;;;;;;;15.60;99.90;;;;;;5124717;27;19912;-55
2022/08/27 02:50:09;;;;;;;;;;;15.60;99.90;;;;;;5124202;27;19912;-55
2022/08/27 02:52:50;;;;;;;;;;;15.60;99.90;;;;;;5125616;27;19916;-55
2022/08/27 02:55:30;;;;;;;;;;;15.60;99.90;;;;;;5125163;27;19918;-55
2022/08/27 02:58:11;;;;;;;;;;;15.70;99.90;;;;;;5124776;27;19918;-55
2022/08/27 03:00:51;;;;;;;;;;;15.70;99.90;;;;;;5145208;27;19915;-54
2022/08/27 03:03:31;;;;;;;;;;;15.80;99.90;;;;;;5125224;27;19912;-55
2022/08/27 03:06:12;;;;;;;;;;;15.90;99.90;;;;;;5093275;27;20352;-55
2022/08/27 03:08:52;;;;;;;;;;;16.00;99.90;;;;;;5124358;27;19919;-55
2022/08/27 03:11:32;;;;;;;;;;;16.00;99.90;;;;;;5125434;27;19911;-54
2022/08/27 03:14:13;;;;;;;;;;;16.10;99.90;;;;;;5125191;27;20343;-54
2022/08/27 03:16:53;;;;;;;;;;;16.10;99.90;;;;;;5125062;27;20420;-54
2022/08/27 03:19:33;;;;;;;;;;;16.10;99.90;;;;;;5123961;27;19915;-55
2022/08/27 03:22:13;;;;;;;;;;;16.20;99.90;;;;;;5123031;27;19912;-55
2022/08/27 03:24:55;;;;;;;;;;;16.20;99.90;;;;;;5102190;27;19912;-55
2022/08/27 03:27:35;;;;;;;;;;;16.20;99.90;;;;;;5123803;27;19922;-55
2022/08/27 03:30:18;;;;;;;;;;;16.20;99.90;;;;;;5123109;27;19911;-55
2022/08/27 03:32:59;;;;;;;;;;;16.20;99.90;;;;;;5123986;27;19911;-54
2022/08/27 03:35:38;;;;;;;;;;;16.10;99.90;;;;;;5102606;27;20420;-55
2022/08/27 03:38:18;;;;;;;;;;;16.20;99.90;;;;;;5123894;27;20403;-55
2022/08/27 03:40:58;;;;;;;;;;;16.20;99.90;;;;;;5103205;27;19912;-55
2022/08/27 03:43:38;;;;;;;;;;;16.10;99.90;;;;;;5124296;27;19916;-55
2022/08/27 03:46:19;;;;;;;;;;;16.10;99.90;;;;;;5092101;27;19958;-54
2022/08/27 03:48:59;;;;;;;;;;;16.10;99.90;;;;;;5123377;27;19918;-55
2022/08/27 03:51:39;;;;;;;;;;;16.20;99.90;;;;;;5103721;27;19926;-54
2022/08/27 03:54:19;;;;;;;;;;;16.20;99.90;;;;;;5123675;27;19912;-54
2022/08/27 03:56:58;;;;;;;;;;;16.20;99.90;;;;;;5121462;27;19922;-55
2022/08/27 03:59:38;;;;;;;;;;;16.20;99.90;;;;;;5113642;27;20269;-55
2022/08/27 04:02:18;;;;;;;;;;;16.20;99.90;;;;;;5096213;27;19920;-54
2022/08/27 04:04:58;;;;;;;;;;;16.20;99.90;;;;;;5121962;27;20108;-55
2022/08/27 04:07:38;;;;;;;;;;;16.30;99.90;;;;;;5117377;27;19930;-55
2022/08/27 04:10:18;;;;;;;;;;;16.20;99.90;;;;;;5115667;27;19922;-54
2022/08/27 04:12:59;;;;;;;;;;;16.30;99.90;;;;;;5098216;27;19934;-54
2022/08/27 04:15:44;;;;;;;;;;;16.30;99.90;;;;;;5100353;27;19924;-54
2022/08/27 04:18:23;;;;;;;;;;;16.30;99.90;;;;;;5122847;27;19912;-55
2022/08/27 04:21:08;;;;;;;;;;;16.30;99.90;;;;;;5121980;27;19916;-55
2022/08/27 04:23:48;;;;;;;;;;;16.30;99.90;;;;;;5100910;27;19926;-55
2022/08/27 04:26:28;;;;;;;;;;;16.40;99.90;;;;;;5109755;27;20083;-55
2022/08/27 04:29:07;;;;;;;;;;;16.40;99.90;;;;;;5102137;27;19953;-54
2022/08/27 04:31:47;;;;;;;;;;;16.40;99.90;;;;;;5102256;27;20348;-54
2022/08/27 04:34:27;;;;;;;;;;;16.30;99.90;;;;;;5121279;27;20325;-55
2022/08/27 04:37:07;;;;;;;;;;;16.30;99.90;;;;;;5120512;27;20387;-55
2022/08/27 04:39:47;;;;;;;;;;;16.30;99.90;;;;;;5120531;27;20325;-55
2022/08/27 04:42:27;;;;;;;;;;;16.30;99.90;;;;;;5103955;27;19946;-54
2022/08/27 04:45:07;;;;;;;;;;;16.30;99.90;;;;;;5124269;27;19918;-54
2022/08/27 04:47:48;;;;;;;;;;;16.30;99.90;;;;;;5123596;27;19918;-55
2022/08/27 04:50:28;;;;;;;;;;;16.30;99.90;;;;;;5102840;27;19981;-55
2022/08/27 04:53:10;;;;;;;;;;;16.30;99.90;;;;;;5124313;27;20381;-55
2022/08/27 04:55:52;;;;;;;;;;;16.30;99.90;;;;;;5145146;27;19912;-55
2022/08/27 04:58:32;;;;;;;;;;;16.30;99.90;;;;;;5123705;27;20391;-55
2022/08/27 05:01:16;;;;;;;;;;;16.40;99.90;;;;;;5124803;27;19916;-55
2022/08/27 05:03:57;;;;;;;;;;;16.40;99.90;;;;;;5125376;27;19912;-54
2022/08/27 05:06:38;;;;;;;;;;;16.50;99.90;;;;;;5123274;27;19923;-55
2022/08/27 05:09:20;;;;;;;;;;;16.50;99.90;;;;;;5124018;27;19918;-54
2022/08/27 05:12:01;;;;;;;;;;;16.50;99.90;;;;;;5124950;27;20187;-54
2022/08/27 05:14:41;;;;;;;;;;;16.60;99.90;;;;;;5143089;27;19916;-55
2022/08/27 05:17:20;;;;;;;;;;;16.60;99.90;;;;;;5108554;27;19913;-55
2022/08/27 05:20:00;;;;;;;;;;;16.70;99.90;;;;;;5104030;27;19916;-55
2022/08/27 05:22:40;;;;;;;;;;;16.70;99.90;;;;;;5123159;27;20343;-55
2022/08/27 05:25:20;;;;;;;;;;;16.80;99.90;;;;;;5123104;27;19912;-55
2022/08/27 05:28:00;;;;;;;;;;;16.80;99.90;;;;;;5082395;28;19916;-55
2022/08/27 05:30:41;;;;;;;;;;;16.90;99.90;;;;;;5102945;27;19912;-54
2022/08/27 05:33:22;;;;;;;;;;;17.00;99.90;;;;;;5123936;27;19918;-54
2022/08/27 05:36:03;;;;;;;;;;;17.10;99.90;;;;;;5093936;27;19918;-54
2022/08/27 05:38:42;;;;;;;;;;;17.20;99.90;;;;;;5100228;27;20556;-55
2022/08/27 05:41:26;;;;;;;;;;;17.30;99.90;;;;;;5124398;27;19912;-55
2022/08/27 05:44:09;;;;;;;;;;;17.40;99.90;;;;;;5124932;27;19912;-54
2022/08/27 05:46:49;;;;;;;;;;;17.40;99.90;;;;;;5108131;27;20266;-54
2022/08/27 05:49:30;;;;;;;;;;;17.50;99.90;;;;;;5124268;27;19918;-54
2022/08/27 05:52:12;;;;;;;;;;;17.60;99.90;;;;;;5125320;27;19912;-55
2022/08/27 05:54:52;;;;;;;;;;;17.60;99.90;;;;;;5124973;27;19912;-54
2022/08/27 05:57:32;;;;;;;;;;;17.70;99.90;;;;;;5124688;27;19912;-54
2022/08/27 06:03:11;;;;;;;;;;;17.70;99.90;;;;;;5122427;27;19918;-54
2022/08/27 06:06:01;;;;;;;;;;;17.80;99.90;;;;;;5143221;27;19912;-54
2022/08/27 06:08:40;;;;;;;;;;;17.80;99.90;;;;;;5120582;27;19929;-54
2022/08/27 06:11:20;;;;;;;;;;;17.90;99.90;;;;;;5123736;27;19912;-54
2022/08/27 06:14:00;;;;;;;;;;;18.00;99.90;;;;;;5124032;27;19922;-54
2022/08/27 06:16:40;;;;;;;;;;;18.10;99.90;;;;;;5108646;27;19912;-54
2022/08/27 06:19:20;;;;;;;;;;;18.20;99.90;;;;;;5115568;27;20536;-54
2022/08/27 06:22:01;;;;;;;;;;;18.30;99.90;;;;;;5124020;27;19912;-54
2022/08/27 06:24:41;;;;;;;;;;;18.50;99.90;;;;;;5083978;27;20399;-54
2022/08/27 06:27:21;;;;;;;;;;;18.70;99.90;;;;;;5123250;27;19926;-54
2022/08/27 06:30:01;;;;;;;;;;;18.80;99.90;;;;;;5122829;27;19915;-54
2022/08/27 06:32:40;;;;;;;;;;;19.00;99.90;;;;;;5122405;27;19918;-53
2022/08/27 06:35:20;;;;;;;;;;;19.10;99.90;;;;;;5119748;27;19912;-54
2022/08/27 06:38:00;;;;;;;;;;;19.30;99.90;;;;;;5123211;27;19918;-54
2022/08/27 06:40:41;;;;;;;;;;;19.40;99.90;;;;;;5122472;27;19934;-54
2022/08/27 06:43:22;;;;;;;;;;;19.30;99.90;;;;;;5123332;27;19911;-54
2022/08/27 06:46:03;;;;;;;;;;;19.30;99.90;;;;;;5110306;27;19953;-54
2022/08/27 06:48:45;;;;;;;;;;;19.30;99.90;;;;;;5100171;27;19951;-54
2022/08/27 06:51:27;;;;;;;;;;;19.20;99.90;;;;;;5123483;27;19912;-53
2022/08/27 06:54:08;;;;;;;;;;;19.20;99.90;;;;;;5101473;27;19919;-54
2022/08/27 06:56:49;;;;;;;;;;;19.10;99.90;;;;;;5104332;27;19916;-54
2022/08/27 06:59:28;;;;;;;;;;;19.10;99.90;;;;;;5099625;27;19930;-54
2022/08/27 07:02:08;;;;;;;;;;;18.90;99.90;;;;;;5121188;27;19920;-54
2022/08/27 07:04:49;;;;;;;;;;;18.90;99.90;;;;;;5117193;27;19930;-54
2022/08/27 07:07:29;;;;;;;;;;;18.90;99.90;;;;;;5074214;27;19925;-54
2022/08/27 07:10:09;;;;;;;;;;;19.00;99.90;;;;;;5091378;27;19916;-54
2022/08/27 07:12:51;;;;;;;;;;;19.20;99.90;;;;;;5102343;27;19920;-53
2022/08/27 07:15:30;;;;;;;;;;;19.20;99.90;;;;;;5116382;27;19913;-54
2022/08/27 07:18:10;;;;;;;;;;;19.30;99.90;;;;;;5121159;27;19916;-54
2022/08/27 07:20:51;;;;;;;;;;;19.40;99.90;;;;;;5100854;27;19957;-54
2022/08/27 07:23:34;;;;;;;;;;;19.50;99.90;;;;;;5122455;27;20296;-53
2022/08/27 07:26:15;;;;;;;;;;;19.60;99.90;;;;;;5110106;27;20423;-53
2022/08/27 07:28:56;;;;;;;;;;;19.80;99.90;;;;;;5120605;27;19912;-54
2022/08/27 07:31:36;;;;;;;;;;;20.00;99.90;;;;;;5122002;27;19916;-54
2022/08/27 07:34:16;;;;;;;;;;;20.10;99.90;;;;;;5121390;27;20368;-54
2022/08/27 07:36:55;;;;;;;;;;;20.20;99.90;;;;;;5106693;27;19926;-54
2022/08/27 07:39:35;;;;;;;;;;;20.30;99.90;;;;;;5122904;27;20118;-53
2022/08/27 07:45:13;;;;;;;;;;;20.50;99.90;;;;;;5141676;27;20322;-54
2022/08/27 07:47:52;;;;;;;;;;;20.50;99.90;;;;;;5142058;27;20394;-54
2022/08/27 07:50:33;;;;;;;;;;;20.50;99.90;;;;;;5102987;27;19930;-54
2022/08/27 07:53:14;;;;;;;;;;;20.50;99.90;;;;;;5125423;27;19911;-54
2022/08/27 07:55:54;;;;;;;;;;;20.40;99.90;;;;;;5114788;27;20285;-53
2022/08/27 07:58:38;;;;;;;;;;;20.50;99.90;;;;;;5080250;28;19942;-53
2022/08/27 08:01:26;;;;;;;;;;;20.70;99.90;;;;;;5082989;28;19913;-56
2022/08/27 08:04:06;;;;;;;;;;;20.90;99.90;;;;;;5122582;27;19926;-53
2022/08/27 08:06:45;;;;;;;;;;;21.00;99.90;;;;;;5086826;27;20324;-54
2022/08/27 08:09:25;;;;;;;;;;;21.00;99.90;;;;;;5122464;27;20486;-57
2022/08/27 08:12:06;;;;;;;;;;;21.10;99.90;;;;;;5116745;27;19911;-54
2022/08/27 08:14:47;;;;;;;;;;;21.10;99.90;;;;;;5123935;27;20089;-53
2022/08/27 08:17:28;;;;;;;;;;;21.00;99.90;;;;;;5121169;27;19922;-53
2022/08/27 08:20:10;;;;;;;;;;;20.90;99.90;;;;;;5121635;27;19926;-53
2022/08/27 08:22:49;;;;;;;;;;;20.80;99.90;;;;;;5122617;27;20282;-53
2022/08/27 08:25:29;;;;;;;;;;;20.60;99.90;;;;;;5118792;27;19912;-53
2022/08/27 08:28:10;;;;;;;;;;;20.60;99.90;;;;;;5123813;27;19912;-53
2022/08/27 08:30:50;;;;;;;;;;;20.50;99.90;;;;;;5144738;27;20316;-54
2022/08/27 08:33:31;;;;;;;;;;;20.50;99.90;;;;;;5124546;27;19912;-54
2022/08/27 08:36:13;;;;;;;;;;;20.50;99.90;;;;;;5113516;27;20201;-53
2022/08/27 08:38:53;;;;;;;;;;;20.50;99.90;;;;;;5103379;27;19922;-52
2022/08/27 08:41:40;;;;;;;;;;;20.80;99.90;;;;;;5126523;27;19915;-57
2022/08/27 08:44:23;;;;;;;;;;;21.10;99.90;;;;;;5125865;27;20311;-54
2022/08/27 08:47:07;;;;;;;;;;;21.60;99.90;;;;;;5125322;27;19926;-52
2022/08/27 08:49:49;;;;;;;;;;;22.10;99.90;;;;;;5124664;27;19911;-53
2022/08/27 08:52:37;;;;;;;;;;;22.40;99.90;;;;;;5126007;27;19918;-53
2022/08/27 08:55:32;;;;;;;;;;;22.70;99.90;;;;;;5122338;27;19916;-53
2022/08/27 08:58:15;;;;;;;;;;;22.80;99.90;;;;;;5105121;27;19912;-54
2022/08/27 09:00:59;;;;;;;;;;;23.10;99.90;;;;;;5124993;27;19953;-54
2022/08/27 09:03:40;;;;;;;;;;;23.10;99.90;;;;;;5125740;27;19911;-53
2022/08/27 09:06:25;;;;;;;;;;;23.00;99.90;;;;;;5113004;27;19913;-55
2022/08/27 09:09:11;;;;;;;;;;;23.00;99.90;;;;;;5124657;27;20295;-54
2022/08/27 09:11:56;;;;;;;;;;;23.20;99.90;;;;;;5105240;27;19926;-53
2022/08/27 09:14:38;;;;;;;;;;;23.30;99.90;;;;;;5104922;27;19926;-54
2022/08/27 09:17:18;;;;;;;;;;;23.30;99.90;;;;;;5125380;27;19912;-53
2022/08/27 09:20:00;;;;;;;;;;;23.30;99.90;;;;;;5124939;27;19915;-54
2022/08/27 09:22:46;;;;;;;;;;;23.30;99.90;;;;;;5105088;27;19961;-53
2022/08/27 09:25:30;;;;;;;;;;;23.30;99.90;;;;;;5120902;27;19918;-54
2022/08/27 09:31:06;;;;;;;;;;;23.50;99.90;;;;;;5104468;27;19957;-57
2022/08/27 09:33:47;;;;;;;;;;;23.40;99.90;;;;;;5104833;27;20355;-53
2022/08/27 09:36:27;;;;;;;;;;;23.30;99.90;;;;;;5111801;27;20377;-54
2022/08/27 09:39:08;;;;;;;;;;;23.40;99.90;;;;;;5104341;27;19930;-55
2022/08/27 09:41:49;;;;;;;;;;;23.70;99.90;;;;;;5085641;28;19920;-54
2022/08/27 09:44:31;;;;;;;;;;;24.00;99.90;;;;;;5105186;27;19953;-53
2022/08/27 09:47:13;;;;;;;;;;;24.20;99.90;;;;;;5125101;27;19920;-54
2022/08/27 09:50:02;;;;;;;;;;;24.50;99.90;;;;;;5124731;27;19912;-55
2022/08/27 09:52:50;;;;;;;;;;;24.60;99.90;;;;;;5105103;27;19954;-54
2022/08/27 09:55:36;;;;;;;;;;;25.10;99.90;;;;;;5119679;27;19912;-53
2022/08/27 09:58:18;;;;;;;;;;;25.60;99.90;;;;;;5104845;27;19945;-54
2022/08/27 10:01:00;;;;;;;;;;;25.90;99.90;;;;;;5104303;27;19912;-55
2022/08/27 10:03:41;;;;;;;;;;;26.00;99.90;;;;;;5125705;27;20393;-56
2022/08/27 10:06:27;;;;;;;;;;;25.90;99.90;;;;;;5113047;27;19912;-54
2022/08/27 10:09:10;;;;;;;;;;;26.00;99.90;;;;;;5124563;27;19919;-55
2022/08/27 10:11:53;;;;;;;;;;;26.20;99.90;;;;;;5140616;27;19961;-55
2022/08/27 10:14:34;;;;;;;;;;;26.50;99.90;;;;;;5118239;27;19916;-54
2022/08/27 10:17:17;;;;;;;;;;;26.80;99.90;;;;;;5106230;27;19916;-55
2022/08/27 10:20:01;;;;;;;;;;;27.30;99.90;;;;;;5106767;27;19919;-54
2022/08/27 10:22:44;;;;;;;;;;;27.80;99.90;;;;;;5123023;27;20332;-54
2022/08/27 10:25:30;;;;;;;;;;;28.10;99.90;;;;;;5120615;27;19916;-54
2022/08/27 10:28:19;;;;;;;;;;;28.40;99.90;;;;;;5124396;27;20567;-54
2022/08/27 10:31:07;;;;;;;;;;;28.50;99.90;;;;;;5124951;27;19915;-54
2022/08/27 10:33:53;;;;;;;;;;;28.30;97.40;;;;;;5105356;27;19926;-55
2022/08/27 10:36:38;;;;;;;;;;;28.20;99.90;;;;;;5111474;27;19969;-54
2022/08/27 10:39:24;;;;;;;;;;;27.90;99.90;;;;;;5124825;27;19916;-54
2022/08/27 10:42:09;;;;;;;;;;;27.70;99.90;;;;;;5124854;27;20309;-55
2022/08/27 10:44:53;;;;;;;;;;;27.50;99.90;;;;;;5104969;27;19926;-54
2022/08/27 10:47:43;;;;;;;;;;;27.50;99.90;;;;;;5104777;27;19954;-55
2022/08/27 10:50:28;;;;;;;;;;;27.50;99.90;;;;;;5103909;27;19912;-57
2022/08/27 10:53:11;;;;;;;;;;;27.60;99.90;;;;;;5125286;27;19919;-55
2022/08/27 10:55:52;;;;;;;;;;;27.60;99.90;;;;;;5116032;27;19920;-54
2022/08/27 10:58:37;;;;;;;;;;;27.40;99.90;;;;;;5124128;27;19949;-54
2022/08/27 11:01:21;;;;;;;;;;;27.20;99.90;;;;;;5104261;27;19930;-55
2022/08/27 11:04:03;;;;;;;;;;;27.10;99.90;;;;;;5125552;27;19912;-53
2022/08/27 11:06:44;;;;;;;;;;;27.10;99.90;;;;;;5109997;27;19916;-55
2022/08/27 11:09:33;;;;;;;;;;;27.00;99.90;;;;;;5124964;27;19915;-55
2022/08/27 11:12:15;;;;;;;;;;;27.20;99.90;;;;;;5133945;27;19912;-54
2022/08/27 11:14:57;;;;;;;;;;;27.40;99.90;;;;;;5125517;27;20256;-56
2022/08/27 11:17:39;;;;;;;;;;;27.50;99.90;;;;;;5124863;27;20145;-54
2022/08/27 11:20:22;;;;;;;;;;;27.80;99.90;;;;;;5104945;27;19912;-54
2022/08/27 11:23:04;;;;;;;;;;;27.80;99.90;;;;;;5125929;27;19918;-54
2022/08/27 11:25:50;;;;;;;;;;;28.00;99.90;;;;;;5097553;27;20343;-54
2022/08/27 11:28:36;;;;;;;;;;;28.40;98.20;;;;;;5104917;27;19912;-55
2022/08/27 11:31:18;;;;;;;;;;;28.30;99.90;;;;;;5125531;27;20317;-53
2022/08/27 11:34:02;;;;;;;;;;;27.80;99.90;;;;;;5085299;28;19913;-55
2022/08/27 11:36:52;;;;;;;;;;;27.30;99.90;;;;;;5125568;27;19912;-55
2022/08/27 11:39:44;;;;;;;;;;;26.90;99.90;;;;;;5122946;27;20316;-54
2022/08/27 11:42:34;;;;;;;;;;;26.40;99.90;;;;;;5125683;27;19922;-54
2022/08/27 11:45:18;;;;;;;;;;;25.90;99.90;;;;;;5125381;27;20312;-54
2022/08/27 11:47:59;;;;;;;;;;;25.90;99.90;;;;;;5125367;27;20372;-54
2022/08/27 11:50:39;;;;;;;;;;;26.00;99.90;;;;;;5124151;27;19911;-54
2022/08/27 11:53:24;;;;;;;;;;;26.10;99.90;;;;;;5125981;27;19912;-53
2022/08/27 11:56:15;;;;;;;;;;;26.30;99.90;;;;;;5095104;27;19926;-54
2022/08/27 11:58:55;;;;;;;;;;;26.60;99.90;;;;;;5124569;27;19949;-54
2022/08/27 12:01:35;;;;;;;;;;;26.90;99.90;;;;;;5125665;27;20296;-57
2022/08/27 12:04:22;;;;;;;;;;;27.20;99.90;;;;;;5125949;27;20202;-54
2022/08/27 12:07:04;;;;;;;;;;;27.70;99.90;;;;;;5125245;27;19912;-54
2022/08/27 12:09:47;;;;;;;;;;;27.90;99.90;;;;;;5125361;27;19911;-54
2022/08/27 12:12:33;;;;;;;;;;;28.70;95.80;;;;;;5133697;27;19912;-55
2022/08/27 12:15:16;;;;;;;;;;;28.80;82.70;;;;;;5125863;27;21307;-54
2022/08/27 12:18:00;;;;;;;;;;;28.80;73.50;;;;;;5125372;27;19916;-55
2022/08/27 12:20:43;;;;;;;;;;;28.50;87.10;;;;;;5125065;27;19919;-54
2022/08/27 12:23:43;;;;;;;;;;;28.30;97.70;;;;;;5105988;27;19918;-54
2022/08/27 12:26:30;;;;;;;;;;;28.00;97.80;;;;;;5113420;27;19916;-56
2022/08/27 12:29:23;;;;;;;;;;;27.50;99.90;;;;;;5124911;27;20192;-56
2022/08/27 12:32:05;;;;;;;;;;;26.80;99.90;;;;;;5105281;27;19950;-53
2022/08/27 12:34:48;;;;;;;;;;;26.50;99.90;;;;;;5126476;27;20507;-53
2022/08/27 12:37:30;;;;;;;;;;;26.30;99.90;;;;;;5104805;27;20370;-53
2022/08/27 12:40:20;;;;;;;;;;;26.20;99.90;;;;;;5104829;27;20377;-53
2022/08/27 12:43:07;;;;;;;;;;;26.30;99.90;;;;;;5125555;27;19916;-53
2022/08/27 12:45:49;;;;;;;;;;;26.30;99.90;;;;;;5116946;27;20148;-55
2022/08/27 12:48:30;;;;;;;;;;;26.10;99.90;;;;;;5124216;27;20297;-54
2022/08/27 12:51:12;;;;;;;;;;;26.00;99.90;;;;;;5125206;27;19918;-54
2022/08/27 12:53:55;;;;;;;;;;;26.00;99.90;;;;;;5125441;27;19916;-54
2022/08/27 12:56:54;;;;;;;;;;;25.80;99.90;;;;;;5090288;27;20374;-53
2022/08/27 12:59:44;;;;;;;;;;;25.60;99.90;;;;;;5104096;27;19977;-54
2022/08/27 13:02:32;;;;;;;;;;;25.40;99.90;;;;;;5125609;27;19912;-57
2022/08/27 13:05:12;;;;;;;;;;;25.10;99.90;;;;;;5122345;27;19930;-54
2022/08/27 13:07:54;;;;;;;;;;;25.00;99.90;;;;;;5146070;27;19911;-55
2022/08/27 13:10:34;;;;;;;;;;;24.80;99.90;;;;;;5125015;27;19911;-53
2022/08/27 13:13:15;;;;;;;;;;;24.60;99.90;;;;;;5105521;27;19953;-57
2022/08/27 13:15:57;;;;;;;;;;;24.50;99.90;;;;;;5110505;27;20738;-55
2022/08/27 13:18:37;;;;;;;;;;;24.50;99.90;;;;;;5087148;27;19912;-55
2022/08/27 13:21:21;;;;;;;;;;;24.50;99.90;;;;;;5105042;27;19916;-55
2022/08/27 13:24:02;;;;;;;;;;;24.50;99.90;;;;;;5125515;27;19911;-53
2022/08/27 13:26:47;;;;;;;;;;;24.50;99.90;;;;;;5105352;27;19920;-54
2022/08/27 13:29:28;;;;;;;;;;;24.50;99.90;;;;;;5124234;27;20385;-56
2022/08/27 13:32:08;;;;;;;;;;;24.50;99.90;;;;;;5124817;27;19920;-55
2022/08/27 13:34:49;;;;;;;;;;;24.50;99.90;;;;;;5104591;27;19916;-54
2022/08/27 13:37:33;;;;;;;;;;;24.50;99.90;;;;;;5083802;28;20344;-56
2022/08/27 13:40:27;;;;;;;;;;;24.60;99.90;;;;;;5104552;27;19916;-56
2022/08/27 13:43:09;;;;;;;;;;;24.60;99.90;;;;;;5125653;27;19962;-56
2022/08/27 13:45:50;;;;;;;;;;;24.80;99.90;;;;;;5115059;27;19912;-57
2022/08/27 13:48:30;;;;;;;;;;;24.80;99.90;;;;;;5103637;27;20850;-55
2022/08/27 13:51:11;;;;;;;;;;;24.50;99.90;;;;;;5123165;27;20376;-55
2022/08/27 13:57:06;;;;;;;;;;;23.90;99.90;;;;;;5117606;22;20686;-57
2022/08/27 13:59:47;;;;;;;;;;;23.50;99.90;;;;;;5124019;27;19912;-59
2022/08/27 14:02:28;;;;;;;;;;;22.10;99.90;;;;;;5126285;27;19919;-58
2022/08/27 14:05:10;;;;;;;;;;;20.20;99.90;;;;;;5124485;27;20271;-59
2022/08/27 14:07:52;;;;;;;;;;;19.00;99.90;;;;;;5104782;27;20258;-57
2022/08/27 14:10:34;;;;;;;;;;;18.50;99.90;;;;;;5090532;28;19922;-57
2022/08/27 14:13:20;;;;;;;;;;;18.30;99.90;;;;;;5125484;27;20554;-58
2022/08/27 14:16:00;;;;;;;;;;;18.30;99.90;;;;;;5153971;27;19952;-58
2022/08/27 14:18:50;;;;;;;;;;;18.40;99.90;;;;;;5124436;27;20388;-57
2022/08/27 14:21:31;;;;;;;;;;;18.10;99.90;;;;;;5123297;27;19919;-57
2022/08/27 14:24:12;;;;;;;;;;;18.00;99.90;;;;;;5124807;27;19926;-56
2022/08/27 14:26:53;;;;;;;;;;;18.00;99.90;;;;;;5124711;27;20191;-56
2022/08/27 14:29:34;;;;;;;;;;;18.10;99.90;;;;;;5123595;27;20712;-56
2022/08/27 14:32:15;;;;;;;;;;;18.30;99.90;;;;;;5125766;27;19915;-56
2022/08/27 14:34:56;;;;;;;;;;;18.40;99.90;;;;;;5122839;27;19938;-57
2022/08/27 14:37:36;;;;;;;;;;;18.50;99.90;;;;;;5124737;27;19916;-57
2022/08/27 14:40:16;;;;;;;;;;;18.50;99.90;;;;;;5124019;27;19918;-57
2022/08/27 14:42:56;;;;;;;;;;;18.60;99.90;;;;;;5125201;27;19953;-56
2022/08/27 14:45:37;;;;;;;;;;;18.70;99.90;;;;;;5082494;28;19935;-56
2022/08/27 14:48:19;;;;;;;;;;;18.90;99.90;;;;;;5125845;27;19918;-56
2022/08/27 14:51:01;;;;;;;;;;;18.80;99.90;;;;;;5121254;27;19912;-58
2022/08/27 14:53:41;;;;;;;;;;;18.90;99.90;;;;;;5103670;27;20262;-56
2022/08/27 14:56:22;;;;;;;;;;;19.00;99.90;;;;;;5124367;27;19925;-56
2022/08/27 14:59:03;;;;;;;;;;;19.20;99.90;;;;;;5101872;27;19912;-56
2022/08/27 15:01:43;;;;;;;;;;;19.40;99.90;;;;;;5124816;27;19915;-56
2022/08/27 15:04:25;;;;;;;;;;;19.60;99.90;;;;;;5103818;27;19916;-56
2022/08/27 15:07:06;;;;;;;;;;;19.80;99.90;;;;;;5110708;27;19918;-57
2022/08/27 15:09:47;;;;;;;;;;;19.80;99.90;;;;;;5124629;27;19912;-58
2022/08/27 15:12:27;;;;;;;;;;;19.70;99.90;;;;;;5126229;27;19912;-56
2022/08/27 15:15:08;;;;;;;;;;;19.90;99.90;;;;;;5123901;27;19942;-56
2022/08/27 15:17:48;;;;;;;;;;;20.00;99.90;;;;;;5112895;27;19920;-56
2022/08/27 15:20:28;;;;;;;;;;;20.20;99.90;;;;;;5125061;27;19918;-56
2022/08/27 15:23:08;;;;;;;;;;;20.30;99.90;;;;;;5126238;27;19912;-56
2022/08/27 15:25:48;;;;;;;;;;;20.30;99.90;;;;;;5100997;27;19931;-56
2022/08/27 15:28:29;;;;;;;;;;;20.40;99.90;;;;;;5124724;27;19922;-56
2022/08/27 15:31:09;;;;;;;;;;;20.50;99.90;;;;;;5125374;27;19912;-57
2022/08/27 15:33:49;;;;;;;;;;;20.70;99.90;;;;;;5125634;27;20454;-57
2022/08/27 15:36:28;;;;;;;;;;;21.00;99.90;;;;;;5095916;27;19913;-56
2022/08/27 15:39:09;;;;;;;;;;;20.90;99.90;;;;;;5104477;27;19973;-56
2022/08/27 15:41:48;;;;;;;;;;;20.50;99.90;;;;;;5133867;27;20405;-58
2022/08/27 15:44:28;;;;;;;;;;;20.40;99.90;;;;;;5125617;27;19918;-56
2022/08/27 15:47:09;;;;;;;;;;;20.50;99.90;;;;;;5084310;28;19922;-56
2022/08/27 15:49:49;;;;;;;;;;;20.70;99.90;;;;;;5104741;27;19913;-56
2022/08/27 15:52:31;;;;;;;;;;;20.70;99.90;;;;;;5104496;27;19912;-56